Time;durP1;ratioP1;P1;durP2;ratioP2;P2;SDS_P1;SDS_P2;PMS_P1;PMS_P2;Temp;Humidity;BMP_temperature;BMP_pressure;BME280_temperature;BME280_humidity;BME280_pressure;Samples;Min_cycle;Max_cycle;Signal;HPM_P1;HPM_P2
2023/01/23 00:00:33;;;;;;;;;45.00;40.25;;;;;2.32;72.54;102364.47;4979519;28;45103;-73
2023/01/23 00:02:59;;;;;;;;;55.00;45.00;;;;;2.37;72.63;102368.03;4981047;28;46278;-73
2023/01/23 00:05:25;;;;;;;;;52.00;43.00;;;;;2.34;71.99;102370.56;4975806;28;45412;-73
2023/01/23 00:07:50;;;;;;;;;50.25;42.25;;;;;2.27;73.05;102346.16;4975627;28;45302;-73
2023/01/23 00:10:16;;;;;;;;;48.50;39.50;;;;;2.34;72.52;102360.19;4974539;28;45299;-73
2023/01/23 00:12:43;;;;;;;;;52.50;43.00;;;;;2.31;72.11;102358.38;4974524;28;46356;-70
2023/01/23 00:15:10;;;;;;;;;53.25;44.25;;;;;2.36;72.02;102366.28;4974729;28;45351;-71
2023/01/23 00:17:36;;;;;;;;;48.00;42.50;;;;;2.38;72.54;102364.59;4973445;28;45403;-71
2023/01/23 00:20:01;;;;;;;;;54.50;47.25;;;;;2.40;72.61;102367.22;4975171;28;45532;-72
2023/01/23 00:22:27;;;;;;;;;52.75;44.00;;;;;2.38;72.77;102358.53;4974647;28;46211;-72
2023/01/23 00:24:52;;;;;;;;;55.75;44.25;;;;;2.41;72.60;102364.69;4974722;28;45276;-73
2023/01/23 00:27:17;;;;;;;;;43.75;38.50;;;;;2.42;72.20;102370.72;4974759;28;45246;-72
2023/01/23 00:29:44;;;;;;;;;55.67;42.67;;;;;2.44;72.79;102362.16;4975208;28;45292;-72
2023/01/23 00:32:09;;;;;;;;;43.75;39.50;;;;;2.46;71.86;102367.34;4974594;28;46384;-72
2023/01/23 00:34:36;;;;;;;;;50.25;42.25;;;;;2.36;71.97;102362.81;4974546;28;45465;-71
2023/01/23 00:37:01;;;;;;;;;44.50;37.75;;;;;2.30;72.47;102366.16;4974949;28;45257;-74
2023/01/23 00:39:26;;;;;;;;;51.00;43.75;;;;;2.22;72.93;102354.72;4973665;28;45573;-73
2023/01/23 00:41:52;;;;;;;;;48.00;39.75;;;;;2.29;73.37;102372.19;4974978;28;46025;-72
2023/01/23 00:44:17;;;;;;;;;59.50;46.75;;;;;2.26;72.45;102366.94;4974855;28;45214;-71
2023/01/23 00:46:42;;;;;;;;;51.75;43.00;;;;;2.25;72.92;102372.97;4974653;28;45307;-71
2023/01/23 00:49:08;;;;;;;;;51.75;42.25;;;;;2.18;72.85;102362.44;4974833;28;45493;-73
2023/01/23 00:51:34;;;;;;;;;52.00;41.50;;;;;2.13;72.29;102361.44;4974603;28;45680;-71
2023/01/23 00:54:00;;;;;;;;;52.25;43.00;;;;;2.23;73.54;102372.06;4974278;28;45409;-73
2023/01/23 00:56:26;;;;;;;;;54.75;45.75;;;;;2.22;73.36;102380.69;4974657;28;45235;-72
2023/01/23 00:58:51;;;;;;;;;53.75;46.25;;;;;2.22;72.69;102365.97;4974498;28;45508;-72
2023/01/23 01:01:18;;;;;;;;;48.75;42.50;;;;;2.25;73.49;102378.16;4974529;28;46159;-73
2023/01/23 01:03:43;;;;;;;;;59.00;48.75;;;;;2.22;73.27;102372.88;4974574;28;45367;-72
2023/01/23 01:06:09;;;;;;;;;34.75;29.25;;;;;2.17;73.39;102381.44;4973973;28;45256;-71
2023/01/23 01:08:36;;;;;;;;;58.75;47.75;;;;;2.16;72.95;102371.00;4974289;28;45268;-72
2023/01/23 01:11:01;;;;;;;;;59.00;47.00;;;;;2.14;74.00;102378.78;4973878;28;45343;-71
2023/01/23 01:13:27;;;;;;;;;59.00;46.75;;;;;2.07;73.58;102368.19;4973676;28;45412;-73
2023/01/23 01:15:52;;;;;;;;;44.75;39.75;;;;;2.09;73.89;102369.13;4975615;28;45301;-72
2023/01/23 01:18:19;;;;;;;;;47.75;43.00;;;;;2.07;73.68;102371.66;4974707;28;45710;-72
2023/01/23 01:20:44;;;;;;;;;49.00;42.25;;;;;2.05;73.49;102365.56;4974135;28;45437;-73
2023/01/23 01:23:10;;;;;;;;;50.75;43.50;;;;;2.06;73.66;102364.72;4974807;28;45240;-72
2023/01/23 01:25:36;;;;;;;;;45.50;39.50;;;;;2.05;73.95;102357.75;4975871;28;45463;-72
2023/01/23 01:28:02;;;;;;;;;53.50;45.75;;;;;2.08;73.51;102351.78;4976403;28;45626;-73
2023/01/23 01:30:29;;;;;;;;;51.00;44.00;;;;;2.12;73.95;102361.41;4975283;28;47170;-73
2023/01/23 01:32:55;;;;;;;;;54.00;44.00;;;;;2.17;73.96;102359.78;4976115;28;45271;-73
2023/01/23 01:35:21;;;;;;;;;54.00;44.75;;;;;2.16;73.61;102358.94;4973980;28;45336;-71
2023/01/23 01:37:46;;;;;;;;;56.25;46.25;;;;;2.17;73.20;102355.47;4974220;28;45647;-73
2023/01/23 01:40:16;;;;;;;;;53.50;44.25;;;;;2.19;73.22;102359.00;4972327;28;47465;-73
2023/01/23 01:42:44;;;;;;;;;46.75;41.75;;;;;2.21;73.39;102359.00;4973801;28;45267;-73
2023/01/23 01:45:47;;;;;;;;;49.50;43.25;;;;;2.24;73.78;102350.44;4974117;28;45263;-71
2023/01/23 01:48:14;;;;;;;;;48.25;42.50;;;;;2.19;73.57;102347.72;4974496;28;45558;-70
2023/01/23 01:50:39;;;;;;;;;45.50;39.50;;;;;2.19;73.61;102353.81;4972243;28;47554;-72
2023/01/23 01:53:05;;;;;;;;;50.00;43.25;;;;;2.16;73.43;102337.25;4973956;28;45306;-71
2023/01/23 01:55:31;;;;;;;;;51.75;42.00;;;;;2.10;73.73;102339.72;4973605;28;45384;-72
2023/01/23 01:57:57;;;;;;;;;48.75;43.00;;;;;2.02;74.60;102335.22;4973700;28;45532;-71
2023/01/23 02:00:22;;;;;;;;;48.25;39.50;;;;;2.02;73.60;102340.41;4975113;28;46316;-73
2023/01/23 02:02:59;;;;;;;;;56.50;44.75;;;;;1.95;74.11;102322.03;4977104;28;45348;-73
2023/01/23 02:05:29;;;;;;;;;53.25;46.25;;;;;2.03;73.70;102325.69;4976844;27;45374;-74
2023/01/23 02:08:02;;;;;;;;;50.25;41.25;;;;;2.12;73.70;102341.53;4973952;28;45395;-73
2023/01/23 02:10:28;;;;;;;;;52.50;44.75;;;;;2.16;73.86;102339.84;4977327;28;45387;-72
2023/01/23 02:12:53;;;;;;;;;42.00;36.75;;;;;2.11;73.65;102329.34;4976873;28;45380;-71
2023/01/23 02:15:21;;;;;;;;;51.00;42.25;;;;;2.21;73.91;102330.44;4975900;27;45417;-71
2023/01/23 02:17:53;;;;;;;;;48.50;40.75;;;;;2.23;74.27;102339.16;4974883;28;45382;-71
2023/01/23 02:20:20;;;;;;;;;54.75;42.50;;;;;2.24;74.43;102347.84;4973556;28;45453;-72
2023/01/23 02:22:52;;;;;;;;;54.25;46.25;;;;;2.23;73.57;102341.75;4973209;28;45411;-72
2023/01/23 02:25:41;;;;;;;;;53.50;44.25;;;;;2.28;73.60;102336.69;4973903;28;45504;-70
2023/01/23 02:28:08;;;;;;;;;45.00;39.75;;;;;2.29;74.35;102347.09;4973411;28;45508;-74
2023/01/23 02:30:34;;;;;;;;;52.75;43.00;;;;;2.28;73.68;102336.69;4972114;28;47394;-71
2023/01/23 02:33:18;;;;;;;;;51.50;40.25;;;;;2.28;73.86;102347.06;4973730;28;45206;-72
2023/01/23 02:35:43;;;;;;;;;43.75;40.00;;;;;2.29;73.61;102343.63;4973489;28;45366;-73
2023/01/23 02:38:09;;;;;;;;;55.00;47.00;;;;;2.27;74.44;102333.19;4973515;28;45197;-73
2023/01/23 02:40:37;;;;;;;;;50.50;41.75;;;;;2.25;73.80;102337.47;4973183;28;46323;-72
2023/01/23 02:43:09;;;;;;;;;54.75;46.00;;;;;2.27;74.21;102343.56;4972972;28;45463;-71
2023/01/23 02:45:36;;;;;;;;;45.00;39.00;;;;;2.28;73.80;102347.94;4973091;28;45366;-72
2023/01/23 02:48:04;;;;;;;;;44.00;40.00;;;;;2.27;73.87;102348.78;4974584;28;45282;-71
2023/01/23 02:50:30;;;;;;;;;55.50;41.75;;;;;2.24;73.54;102353.88;4976718;28;45912;-73
2023/01/23 02:52:56;;;;;;;;;49.75;42.50;;;;;2.26;74.16;102367.78;4975137;28;45521;-73
2023/01/23 02:55:25;;;;;;;;;55.50;45.25;;;;;2.24;74.47;102356.50;4974338;28;45382;-72
2023/01/23 02:57:51;;;;;;;;;49.75;40.00;;;;;2.25;74.77;102367.78;4974175;28;45542;-72
2023/01/23 03:00:18;;;;;;;;;50.25;43.00;;;;;2.25;73.95;102368.63;4974221;28;46207;-73
2023/01/23 03:02:47;;;;;;;;;49.25;43.00;;;;;2.28;73.98;102360.91;4971066;28;45520;-74
2023/01/23 03:05:12;;;;;;;;;45.75;40.00;;;;;2.27;74.77;102361.75;4974181;28;45464;-72
2023/01/23 03:07:38;;;;;;;;;52.50;44.00;;;;;2.26;74.20;102357.41;4973629;28;45271;-73
2023/01/23 03:10:04;;;;;;;;;53.50;45.25;;;;;2.31;73.89;102354.94;5066292;28;45422;-73
2023/01/23 03:12:30;;;;;;;;;49.75;43.00;;;;;2.34;74.22;102352.41;5074666;27;45495;-71
2023/01/23 03:14:56;;;;;;;;;48.00;41.75;;;;;2.37;74.58;102362.84;5075484;28;45330;-73
2023/01/23 03:17:22;;;;;;;;;48.25;41.00;;;;;2.36;74.28;102357.59;5075997;28;45541;-72
2023/01/23 03:19:47;;;;;;;;;52.25;42.25;;;;;2.34;74.41;102349.81;5075114;27;45527;-71
2023/01/23 03:22:13;;;;;;;;;51.00;43.25;;;;;2.35;74.53;102356.75;5075573;27;45523;-73
2023/01/23 03:24:39;;;;;;;;;51.25;42.25;;;;;2.34;74.48;102349.81;5076560;27;45871;-72
2023/01/23 03:27:05;;;;;;;;;55.25;44.00;;;;;2.25;74.10;102341.81;5076106;27;45409;-72
2023/01/23 03:32:16;;;;;;;;;51.00;43.00;;;;;2.33;74.61;102353.25;5075079;28;45343;-71
2023/01/23 03:34:42;;;;;;;;;51.50;43.00;;;;;2.31;74.41;102354.94;5073806;28;45544;-73
2023/01/23 03:37:09;;;;;;;;;51.75;44.00;;;;;2.25;74.82;102349.59;5075904;27;45557;-71
2023/01/23 03:42:19;;;;;;;;;50.25;40.00;;;;;2.25;74.95;102341.81;5076701;28;45513;-71
2023/01/23 03:44:44;;;;;;;;;41.75;38.50;;;;;2.32;74.32;102354.09;5077179;27;45317;-73
2023/01/23 03:47:09;;;;;;;;;50.75;43.50;;;;;2.16;74.68;102332.06;5075298;27;45709;-72
2023/01/23 03:49:35;;;;;;;;;52.00;42.50;;;;;2.32;73.79;102360.13;5075925;27;45370;-71
2023/01/23 03:52:01;;;;;;;;;40.50;36.50;;;;;2.31;74.25;102368.78;5075586;27;45362;-73
2023/01/23 03:54:26;;;;;;;;;45.25;40.50;;;;;2.28;73.77;102362.66;5074374;28;45376;-73
2023/01/23 03:56:52;;;;;;;;;45.25;40.00;;;;;2.29;74.23;102356.59;5074711;28;45382;-72
2023/01/23 03:59:18;;;;;;;;;46.25;41.25;;;;;2.29;74.28;102354.00;5075940;27;46564;-73
2023/01/23 04:01:43;;;;;;;;;56.75;45.50;;;;;2.36;73.88;102355.91;5076635;27;45374;-72
2023/01/23 04:04:09;;;;;;;;;49.25;40.75;;;;;2.33;74.91;102355.84;5074771;28;45421;-73
2023/01/23 04:06:34;;;;;;;;;45.00;40.50;;;;;2.21;74.52;102329.59;5077855;27;45410;-73
2023/01/23 04:08:59;;;;;;;;;57.75;41.75;;;;;2.31;74.91;102347.13;5077936;27;46265;-74
2023/01/23 04:11:25;;;;;;;;;53.75;42.00;;;;;2.28;74.64;102353.13;5076965;27;45363;-73
2023/01/23 04:13:51;;;;;;;;;43.50;39.00;;;;;2.22;74.11;102345.19;5076416;28;45337;-70
2023/01/23 04:16:17;;;;;;;;;42.50;39.25;;;;;2.27;75.13;102345.31;5079114;27;45504;-72
2023/01/23 04:18:42;;;;;;;;;47.75;40.25;;;;;2.08;74.95;102313.69;5079225;27;46266;-73
2023/01/23 04:21:08;;;;;;;;;53.75;43.50;;;;;2.42;74.92;102350.84;5079207;28;45408;-74
2023/01/23 04:23:33;;;;;;;;;48.25;40.50;;;;;2.45;73.86;102360.41;5079508;27;45372;-74
2023/01/23 04:25:59;;;;;;;;;49.75;42.25;;;;;2.46;74.24;102364.75;5081048;27;45562;-72
2023/01/23 04:28:25;;;;;;;;;52.00;40.00;;;;;2.46;74.56;102364.75;5080707;27;46180;-73
2023/01/23 04:30:51;;;;;;;;;43.75;39.75;;;;;2.35;74.39;102354.16;5078624;28;45414;-72
2023/01/23 04:33:17;;;;;;;;;48.25;42.75;;;;;2.40;73.91;102354.22;5080188;27;45384;-75
2023/01/23 04:35:55;;;;;;;;;50.25;40.75;;;;;2.39;74.84;102374.16;5078659;27;45357;-74
2023/01/23 04:38:22;;;;;;;;;59.00;45.25;;;;;2.35;74.88;102367.13;5077853;27;47082;-71
2023/01/23 04:40:49;;;;;;;;;49.25;42.75;;;;;2.35;75.01;102369.72;5078453;28;45794;-72
2023/01/23 04:43:15;;;;;;;;;51.50;43.00;;;;;2.37;74.35;102369.75;5078270;27;45346;-71
2023/01/23 04:45:40;;;;;;;;;39.25;38.25;;;;;2.40;73.86;102368.13;5078323;27;45247;-72
2023/01/23 04:48:06;;;;;;;;;51.75;42.50;;;;;2.39;74.92;102366.38;5077580;27;45320;-72
2023/01/23 04:50:32;;;;;;;;;51.75;42.00;;;;;2.40;74.50;102369.81;5077402;27;45368;-72
2023/01/23 04:52:57;;;;;;;;;48.25;41.75;;;;;2.40;73.80;102372.41;5077530;27;45351;-73
2023/01/23 04:55:23;;;;;;;;;49.75;42.00;;;;;2.40;74.37;102368.13;5077365;27;45613;-74
2023/01/23 04:57:49;;;;;;;;;53.75;44.00;;;;;2.38;74.51;102362.00;5076020;28;47140;-73
2023/01/23 05:00:15;;;;;;;;;48.75;40.50;;;;;2.41;73.90;102369.88;5076071;28;45360;-72
2023/01/23 05:02:40;;;;;;;;;45.75;40.50;;;;;2.38;74.19;102375.00;5077651;27;45287;-73
2023/01/23 05:05:06;;;;;;;;;46.50;40.75;;;;;2.26;73.89;102362.59;5077456;27;45992;-73
2023/01/23 05:07:31;;;;;;;;;45.00;41.00;;;;;2.29;75.04;102365.25;5077064;27;46330;-71
2023/01/23 05:09:57;;;;;;;;;53.00;45.00;;;;;2.28;73.95;102365.25;5079387;27;45451;-72
2023/01/23 05:12:22;;;;;;;;;52.25;42.25;;;;;2.37;74.11;102383.63;5075402;28;45268;-72
2023/01/23 05:14:47;;;;;;;;;53.75;45.50;;;;;2.27;74.67;102368.69;5077454;28;45265;-71
2023/01/23 05:17:12;;;;;;;;;53.75;44.00;;;;;2.37;74.86;102378.44;5076253;27;57939;-72
2023/01/23 05:19:38;;;;;;;;;41.00;37.50;;;;;2.37;74.84;102382.75;5076666;27;45374;-70
2023/01/23 05:22:03;;;;;;;;;43.75;39.25;;;;;2.35;74.83;102380.13;5075591;28;45341;-73
2023/01/23 05:24:28;;;;;;;;;56.00;46.25;;;;;2.37;74.62;102380.13;5076328;28;45532;-75
2023/01/23 05:26:54;;;;;;;;;51.50;43.25;;;;;2.42;74.87;102391.50;5077060;28;45959;-72
2023/01/23 05:29:19;;;;;;;;;43.50;39.00;;;;;2.38;74.76;102384.50;5077649;28;55709;-73
2023/01/23 05:31:44;;;;;;;;;39.25;36.50;;;;;2.42;74.09;102396.72;5077342;27;45249;-73
2023/01/23 05:34:10;;;;;;;;;45.75;41.00;;;;;2.41;75.05;102392.34;5077612;27;45191;-71
2023/01/23 05:36:35;;;;;;;;;53.50;43.75;;;;;2.39;74.27;102402.72;5075612;28;47751;-71
2023/01/23 05:39:00;;;;;;;;;51.50;44.75;;;;;2.35;75.00;102398.31;5077284;27;45384;-71
2023/01/23 05:41:26;;;;;;;;;50.75;43.00;;;;;2.18;74.09;102375.41;5076866;27;45243;-71
2023/01/23 05:43:51;;;;;;;;;55.00;43.50;;;;;2.37;75.30;102401.81;5077811;27;45275;-74
2023/01/23 05:46:16;;;;;;;;;30.25;29.50;;;;;2.35;74.62;102395.69;5076866;27;45623;-72
2023/01/23 05:48:42;;;;;;;;;48.50;42.75;;;;;2.38;74.65;102408.75;5076392;28;45260;-71
2023/01/23 05:51:07;;;;;;;;;47.00;37.25;;;;;2.35;74.35;102411.28;5076814;27;45321;-72
2023/01/23 05:53:32;;;;;;;;;46.00;39.75;;;;;2.35;74.89;102408.69;5076849;27;45509;-72
2023/01/23 05:55:58;;;;;;;;;35.00;32.25;;;;;2.34;74.80;102410.41;5077836;27;45393;-73
2023/01/23 05:58:23;;;;;;;;;47.75;40.25;;;;;2.32;73.97;102400.81;5076533;27;45864;-72
2023/01/23 06:00:48;;;;;;;;;43.50;40.00;;;;;2.38;73.99;102413.06;5076975;28;45469;-73
2023/01/23 06:03:14;;;;;;;;;48.00;41.50;;;;;2.26;74.71;102395.50;5077898;27;45592;-74
2023/01/23 06:05:40;;;;;;;;;46.50;40.75;;;;;2.37;75.22;102414.78;5075743;27;45418;-73
2023/01/23 06:08:05;;;;;;;;;46.75;38.50;;;;;2.44;74.26;102415.81;5076056;27;45310;-72
2023/01/23 06:10:31;;;;;;;;;44.50;39.00;;;;;2.42;74.50;102420.97;5074744;28;45398;-73
2023/01/23 06:12:56;;;;;;;;;39.75;38.50;;;;;2.42;73.62;102427.88;5077243;27;45541;-73
2023/01/23 06:15:21;;;;;;;;;42.00;38.75;;;;;2.41;74.31;102423.53;5075947;28;46373;-71
2023/01/23 06:17:47;;;;;;;;;44.75;38.25;;;;;2.44;74.09;102427.09;5075706;27;45492;-71
2023/01/23 06:20:13;;;;;;;;;40.25;36.75;;;;;2.47;73.79;102421.97;5075617;28;50561;-71
2023/01/23 06:22:38;;;;;;;;;41.00;35.00;;;;;2.53;74.38;102435.94;5074939;28;45324;-71
2023/01/23 06:25:04;;;;;;;;;41.50;37.25;;;;;2.47;73.85;102427.16;5074309;28;46951;-73
2023/01/23 06:27:29;;;;;;;;;40.25;38.25;;;;;2.34;73.56;102405.19;5057091;28;45220;-72
2023/01/23 06:29:54;;;;;;;;;40.25;36.25;;;;;2.58;73.01;102434.31;5076146;27;45172;-74
2023/01/23 06:32:22;;;;;;;;;37.50;36.00;;;;;2.58;73.64;102440.38;5077534;27;45218;-74
2023/01/23 06:34:48;;;;;;;;;40.50;35.75;;;;;2.59;73.18;102438.66;5092405;27;46212;-74
2023/01/23 06:37:13;;;;;;;;;44.25;38.00;;;;;2.60;73.65;102440.44;5075473;27;45248;-74
2023/01/23 06:39:39;;;;;;;;;42.75;38.00;;;;;2.65;73.32;102432.72;5076621;27;45845;-73
2023/01/23 06:42:08;;;;;;;;;36.50;33.75;;;;;2.63;73.72;102436.16;5077135;27;45441;-72
2023/01/23 06:44:34;;;;;;;;;40.75;36.25;;;;;2.62;73.81;102436.16;5077689;28;46004;-72
2023/01/23 06:46:59;;;;;;;;;38.00;36.75;;;;;2.54;73.06;102427.28;5077865;27;45229;-73
2023/01/23 06:49:24;;;;;;;;;41.00;38.75;;;;;2.48;72.64;102426.31;5079375;28;45316;-71
2023/01/23 06:51:50;;;;;;;;;39.75;38.50;;;;;2.52;73.03;102440.22;5077032;27;45241;-72
2023/01/23 06:54:15;;;;;;;;;36.00;34.75;;;;;2.46;73.28;102429.69;5076448;27;47278;-72
2023/01/23 06:56:41;;;;;;;;;40.25;37.75;;;;;2.48;73.46;102428.91;5075037;27;45176;-73
2023/01/23 06:59:06;;;;;;;;;44.00;39.00;;;;;2.57;73.23;102435.16;5074861;27;45271;-72
2023/01/23 07:01:31;;;;;;;;;48.25;40.25;;;;;2.58;74.03;102434.31;5075406;27;45305;-72
2023/01/23 07:03:59;;;;;;;;;43.50;39.25;;;;;2.57;73.73;102424.75;5073694;28;47011;-73
2023/01/23 07:06:24;;;;;;;;;40.00;38.00;;;;;2.60;73.06;102430.91;5073780;28;45284;-72
2023/01/23 07:08:50;;;;;;;;;41.75;38.25;;;;;2.60;73.08;102437.81;5075396;27;45298;-72
2023/01/23 07:11:15;;;;;;;;;43.25;39.50;;;;;2.51;73.81;102428.09;5075089;28;45272;-73
2023/01/23 07:13:41;;;;;;;;;45.00;38.25;;;;;2.54;74.02;102438.56;5074818;27;46204;-71
2023/01/23 07:16:06;;;;;;;;;45.75;38.00;;;;;2.53;72.94;102431.59;5072628;27;45476;-73
2023/01/23 07:18:32;;;;;;;;;49.00;40.50;;;;;2.52;73.95;102440.22;5073708;28;45497;-75
2023/01/23 07:20:58;;;;;;;;;39.75;36.25;;;;;2.23;73.79;102390.22;5076159;28;45332;-75
2023/01/23 07:23:23;;;;;;;;;42.00;36.00;;;;;2.36;73.32;102409.56;5075612;28;45499;-73
2023/01/23 07:25:49;;;;;;;;;50.75;44.50;;;;;2.52;73.83;102431.56;5074770;27;45448;-75
2023/01/23 07:28:14;;;;;;;;;45.25;40.00;;;;;2.55;73.13;102439.44;5072625;28;45421;-76
2023/01/23 07:30:40;;;;;;;;;47.25;40.00;;;;;2.54;73.82;102440.28;5078574;27;45221;-77
2023/01/23 07:33:05;;;;;;;;;43.75;37.00;;;;;2.56;74.16;102446.41;5075204;27;46422;-76
2023/01/23 07:35:31;;;;;;;;;43.50;37.75;;;;;2.39;73.21;102417.41;4995203;27;45954;-77
2023/01/23 07:37:56;;;;;;;;;38.00;36.25;;;;;2.53;73.93;102438.53;4976230;28;45725;-75
2023/01/23 07:40:23;;;;;;;;;37.75;36.50;;;;;2.56;74.08;102449.84;4974657;28;45589;-75
2023/01/23 07:42:48;;;;;;;;;44.00;40.00;;;;;2.55;74.11;102444.63;4973051;28;45422;-73
2023/01/23 07:45:14;;;;;;;;;42.00;39.75;;;;;2.52;73.15;102437.63;4986292;28;45454;-75
2023/01/23 07:47:39;;;;;;;;;45.00;41.25;;;;;2.45;73.92;102426.25;4970042;28;46044;-73
2023/01/23 07:50:10;;;;;;;;;47.50;39.75;;;;;2.58;74.20;102455.09;4974984;28;45414;-73
2023/01/23 07:52:36;;;;;;;;;48.75;38.25;;;;;2.55;73.47;102448.09;4974930;28;45605;-75
2023/01/23 07:55:02;;;;;;;;;48.50;41.25;;;;;2.46;74.03;102440.97;4990933;28;45467;-74
2023/01/23 07:57:28;;;;;;;;;42.50;38.25;;;;;2.48;73.26;102449.69;4975000;28;45539;-77
2023/01/23 07:59:53;;;;;;;;;46.50;41.25;;;;;2.31;73.78;102425.91;4974432;28;45311;-76
2023/01/23 08:02:19;;;;;;;;;49.25;40.75;;;;;2.48;74.28;102447.09;4973497;28;46217;-74
2023/01/23 08:04:44;;;;;;;;;43.00;38.75;;;;;2.40;73.26;102434.75;4974727;28;45392;-75
2023/01/23 08:07:09;;;;;;;;;40.00;36.50;;;;;2.47;73.49;102442.75;4974866;28;45429;-76
2023/01/23 08:09:35;;;;;;;;;43.50;37.50;;;;;2.51;73.82;102448.00;4974695;28;45316;-75
2023/01/23 08:12:00;;;;;;;;;41.50;36.25;;;;;2.44;73.15;102445.28;4955514;28;46069;-78
2023/01/23 08:14:26;;;;;;;;;40.00;36.50;;;;;2.52;73.06;102450.63;4975929;28;46043;-76
2023/01/23 08:16:51;;;;;;;;;39.50;36.25;;;;;2.55;74.15;102447.25;4973439;28;45227;-77
2023/01/23 08:19:18;;;;;;;;;42.75;39.25;;;;;2.51;74.13;102443.66;4969609;28;45304;-72
2023/01/23 08:21:44;;;;;;;;;28.25;24.50;;;;;2.52;74.00;102437.63;4967057;28;46341;-73
2023/01/23 08:24:11;;;;;;;;;45.75;39.25;;;;;2.57;73.18;102453.34;4973301;28;45396;-75
2023/01/23 08:26:37;;;;;;;;;51.00;43.25;;;;;2.60;73.55;102454.28;4971935;28;45386;-74
2023/01/23 08:29:02;;;;;;;;;46.25;40.50;;;;;2.57;74.26;102442.97;4975073;28;45480;-74
2023/01/23 08:31:28;;;;;;;;;52.00;41.00;;;;;2.65;73.28;102448.31;4975011;28;46138;-74
2023/01/23 08:33:54;;;;;;;;;44.25;39.50;;;;;2.61;73.18;102445.63;4977894;28;45720;-74
2023/01/23 08:36:19;;;;;;;;;42.75;39.00;;;;;2.69;73.69;102452.75;4978439;28;45454;-74
2023/01/23 08:38:45;;;;;;;;;44.00;38.75;;;;;2.70;73.28;102457.97;4976263;28;45245;-73
2023/01/23 08:41:10;;;;;;;;;55.00;45.25;;;;;2.67;73.38;102449.25;4977413;28;45638;-75
2023/01/23 08:43:36;;;;;;;;;43.50;37.75;;;;;2.69;73.94;102453.63;4976127;28;45376;-76
2023/01/23 08:46:02;;;;;;;;;41.50;38.25;;;;;2.75;73.45;102455.50;4977102;28;45333;-77
2023/01/23 08:48:28;;;;;;;;;49.00;41.50;;;;;2.74;73.39;102456.34;4977917;28;45267;-75
2023/01/23 08:51:04;;;;;;;;;43.75;39.00;;;;;2.79;72.91;102454.72;4975042;28;46906;-71
2023/01/23 08:53:31;;;;;;;;;46.25;40.50;;;;;2.83;73.36;102456.56;4975632;28;45228;-78
2023/01/23 08:56:02;;;;;;;;;41.25;36.25;;;;;2.85;73.26;102446.16;4973681;28;45339;-76
2023/01/23 08:58:28;;;;;;;;;38.00;35.50;;;;;2.88;73.54;102443.63;4975319;28;45521;-77
2023/01/23 09:00:53;;;;;;;;;50.50;41.00;;;;;2.90;72.75;102436.75;4972157;28;47092;-77
2023/01/23 09:03:18;;;;;;;;;43.50;39.50;;;;;2.82;72.90;102414.91;4976029;28;45315;-75
2023/01/23 09:05:44;;;;;;;;;44.75;40.25;;;;;2.97;73.34;102442.97;4975466;28;45231;-75
2023/01/23 09:08:09;;;;;;;;;41.50;38.75;;;;;2.99;72.34;102449.09;4974788;28;45212;-73
2023/01/23 09:10:35;;;;;;;;;33.00;30.00;;;;;2.98;72.04;102449.94;4975347;28;53765;-75
2023/01/23 09:13:00;;;;;;;;;40.75;36.00;;;;;2.95;72.09;102442.91;4978500;28;45248;-74
2023/01/23 09:15:26;;;;;;;;;47.25;41.25;;;;;2.97;72.68;102453.38;4980638;28;45240;-72
2023/01/23 09:17:52;;;;;;;;;48.25;41.50;;;;;3.00;73.05;102441.31;4982099;28;45223;-71
2023/01/23 09:20:17;;;;;;;;;42.75;37.00;;;;;3.12;72.08;102451.09;4979805;28;46151;-73
2023/01/23 09:22:43;;;;;;;;;46.75;39.00;;;;;3.09;72.64;102447.53;4979392;28;45873;-76
2023/01/23 09:25:09;;;;;;;;;45.00;40.25;;;;;3.15;72.66;102452.88;4978817;28;45211;-74
2023/01/23 09:27:34;;;;;;;;;51.00;42.00;;;;;3.19;72.29;102463.38;4978471;28;45483;-75
2023/01/23 09:30:00;;;;;;;;;48.00;41.50;;;;;3.18;72.53;102459.03;4982219;28;46275;-76
2023/01/23 09:32:25;;;;;;;;;42.50;39.00;;;;;3.27;72.70;102460.94;4980630;28;45334;-75
2023/01/23 09:34:51;;;;;;;;;43.00;39.00;;;;;3.30;72.28;102471.41;4979129;28;45722;-74
2023/01/23 09:37:16;;;;;;;;;52.75;43.75;;;;;3.33;71.81;102473.19;4977833;28;45370;-71
2023/01/23 09:39:44;;;;;;;;;44.25;37.50;;;;;3.35;72.16;102480.19;4977807;28;45431;-73
2023/01/23 09:42:20;;;;;;;;;41.25;38.25;;;;;3.42;71.98;102490.72;4984284;28;45339;-73
2023/01/23 09:44:55;;;;;;;;;36.75;34.25;;;;;3.45;71.76;102495.97;4984245;28;45241;-74
2023/01/23 09:47:31;;;;;;;;;36.75;34.25;;;;;3.35;72.18;102476.69;4977801;28;45343;-73
2023/01/23 09:50:13;;;;;;;;;47.25;39.50;;;;;3.47;71.53;102494.28;4979688;28;46608;-75
2023/01/23 09:52:53;;;;;;;;;46.25;40.50;;;;;3.48;71.36;102504.72;4976272;28;45353;-73
2023/01/23 09:56:00;;;;;;;;;50.50;42.50;;;;;3.40;71.34;102502.81;4976712;28;45318;-74
2023/01/23 09:58:57;;;;;;;;;54.75;40.50;;;;;3.38;72.47;102509.72;4881546;29;45522;-75
2023/01/23 10:01:25;;;;;;;;;45.00;38.00;;;;;3.34;71.88;102495.75;4990820;27;47469;-75
2023/01/23 10:03:50;;;;;;;;;53.00;44.25;;;;;3.38;72.52;102513.19;4976221;28;45292;-71
2023/01/23 10:06:16;;;;;;;;;43.50;39.50;;;;;3.40;72.33;102515.81;4973892;28;45449;-75
2023/01/23 10:09:10;;;;;;;;;50.50;41.25;;;;;3.47;71.99;102517.72;4975713;28;45175;-73
2023/01/23 10:11:36;;;;;;;;;44.00;40.00;;;;;3.52;72.28;102513.47;4976416;28;45192;-76
2023/01/23 10:14:04;;;;;;;;;47.75;41.00;;;;;3.58;72.10;102515.31;4974790;28;45200;-71
2023/01/23 10:16:49;;;;;;;;;49.50;40.75;;;;;3.54;71.67;102511.78;4980087;28;45344;-72
2023/01/23 10:19:48;;;;;;;;;43.25;39.25;;;;;3.52;71.38;102518.69;4978345;28;45337;-73
2023/01/23 10:22:33;;;;;;;;;40.75;38.25;;;;;3.53;72.31;102520.44;4973161;28;47384;-73
2023/01/23 10:25:00;;;;;;;;;49.25;40.25;;;;;3.55;71.89;102515.25;4975013;28;45346;-74
2023/01/23 10:27:41;;;;;;;;;51.25;39.50;;;;;3.51;71.30;102509.13;4973726;28;45220;-73
2023/01/23 10:30:32;;;;;;;;;39.75;36.25;;;;;3.51;71.02;102515.19;4975269;28;45478;-73
2023/01/23 10:33:13;;;;;;;;;42.25;38.50;;;;;3.54;71.13;102519.59;4973579;28;46956;-78
2023/01/23 10:36:00;;;;;;;;;41.50;39.00;;;;;3.49;71.16;102516.88;4973917;28;45254;-75
2023/01/23 10:38:32;;;;;;;;;56.25;45.50;;;;;3.43;71.41;102521.09;4975647;28;45219;-72
2023/01/23 10:41:13;;;;;;;;;41.75;38.75;;;;;3.43;71.19;102514.16;4973708;28;45543;-74
2023/01/23 10:43:40;;;;;;;;;55.50;45.50;;;;;3.41;70.70;102515.84;4973390;28;45239;-73
2023/01/23 10:46:14;;;;;;;;;48.75;43.25;;;;;3.41;71.19;102512.38;4974058;28;45369;-73
2023/01/23 10:48:46;;;;;;;;;35.75;34.75;;;;;3.42;71.32;102504.59;4974669;28;45292;-72
2023/01/23 10:51:45;;;;;;;;;52.50;42.25;;;;;3.42;71.79;102503.72;4974051;28;45425;-72
2023/01/23 10:54:11;;;;;;;;;61.25;50.00;;;;;3.43;71.11;102497.69;4959284;28;46342;-73
2023/01/23 10:56:59;;;;;;;;;55.50;44.75;;;;;3.38;71.78;102478.50;4973887;28;45267;-71
2023/01/23 10:59:29;;;;;;;;;48.00;41.25;;;;;3.44;71.99;102497.69;4972978;28;45223;-75
2023/01/23 11:01:58;;;;;;;;;36.00;35.00;;;;;3.47;71.22;102492.56;4973411;28;45308;-73
2023/01/23 11:04:26;;;;;;;;;49.25;40.75;;;;;3.47;70.91;102476.94;4971358;28;47160;-72
2023/01/23 11:07:21;;;;;;;;;45.75;39.75;;;;;3.59;71.79;102493.66;4971306;28;45318;-76
2023/01/23 11:09:57;;;;;;;;;53.25;43.75;;;;;3.68;71.53;102495.56;4972653;28;45338;-72
2023/01/23 11:12:29;;;;;;;;;43.25;38.00;;;;;3.69;71.15;102485.16;4973102;28;45405;-73
2023/01/23 11:15:32;;;;;;;;;36.75;34.50;;;;;3.70;70.36;102486.91;4973194;28;46202;-72
2023/01/23 11:18:00;;;;;;;;;47.75;40.75;;;;;3.64;70.02;102485.09;4894167;29;45419;-74
2023/01/23 11:20:41;;;;;;;;;54.25;45.50;;;;;3.63;70.65;102472.03;4958503;28;45526;-72
2023/01/23 11:23:07;;;;;;;;;36.50;34.00;;;;;3.74;70.32;102480.94;4974047;28;45383;-71
2023/01/23 11:25:44;;;;;;;;;50.00;40.50;;;;;3.75;70.09;102482.72;5077240;27;46146;-73